Time;durP1;ratioP1;P1;durP2;ratioP2;P2;SDS_P1;SDS_P2;PMS_P1;PMS_P2;Temp;Humidity;BMP_temperature;BMP_pressure;BME280_temperature;BME280_humidity;BME280_pressure;Samples;Min_cycle;Max_cycle;Signal;HPM_P1;HPM_P2
2021/10/13 00:01:28;;;;;;;;;;;10.80;92.90;;;;;;4333016;33;46010;-81
2021/10/13 00:04:01;;;;;;;;;;;10.80;92.90;;;;;;4332703;33;45246;-81
2021/10/13 00:06:29;;;;;;;;;;;10.80;92.90;;;;;;4333615;33;43328;-81
2021/10/13 00:09:07;;;;;;;;;;;10.80;92.90;;;;;;4333793;33;45165;-82
2021/10/13 00:11:45;;;;;;;;;;;10.80;92.90;;;;;;4333500;33;42900;-81
2021/10/13 00:14:21;;;;;;;;;;;10.80;92.90;;;;;;4346736;33;44255;-81
2021/10/13 00:17:02;;;;;;;;;;;10.80;92.90;;;;;;4333506;33;45034;-81
2021/10/13 00:19:38;;;;;;;;;;;10.80;92.90;;;;;;4333422;33;44827;-81
2021/10/13 00:22:10;;;;;;;;;;;10.80;92.80;;;;;;4346664;33;44285;-81
2021/10/13 00:24:43;;;;;;;;;;;10.70;92.80;;;;;;4333331;33;43566;-82
2021/10/13 00:27:18;;;;;;;;;;;10.70;92.80;;;;;;4333342;33;45841;-81
2021/10/13 00:29:53;;;;;;;;;;;10.70;92.70;;;;;;4333253;33;44216;-83
2021/10/13 00:32:26;;;;;;;;;;;10.70;92.80;;;;;;4346526;33;46111;-81
2021/10/13 00:34:57;;;;;;;;;;;10.70;92.70;;;;;;4346431;33;44338;-81
2021/10/13 00:37:28;;;;;;;;;;;10.70;92.70;;;;;;4332734;33;45683;-81
2021/10/13 00:40:02;;;;;;;;;;;10.70;92.70;;;;;;4333330;33;43465;-81
2021/10/13 00:42:36;;;;;;;;;;;10.60;92.70;;;;;;4333251;33;44759;-81
2021/10/13 00:45:06;;;;;;;;;;;10.60;92.70;;;;;;4333194;33;43064;-81
2021/10/13 00:47:34;;;;;;;;;;;10.60;92.70;;;;;;4346325;33;43791;-82
2021/10/13 00:50:11;;;;;;;;;;;10.60;92.70;;;;;;4345656;33;43214;-81
2021/10/13 00:52:49;;;;;;;;;;;10.60;92.70;;;;;;4332676;33;43846;-81
2021/10/13 00:55:22;;;;;;;;;;;10.50;92.60;;;;;;4332921;33;43637;-81
2021/10/13 00:57:56;;;;;;;;;;;10.60;92.70;;;;;;4347107;33;20056;-81
2021/10/13 01:00:28;;;;;;;;;;;10.60;92.70;;;;;;4333106;33;44002;-81
2021/10/13 01:03:02;;;;;;;;;;;10.50;92.60;;;;;;4332567;33;44327;-81
2021/10/13 01:05:46;;;;;;;;;;;10.50;92.60;;;;;;4332787;33;43582;-81
2021/10/13 01:08:25;;;;;;;;;;;10.50;92.60;;;;;;4332754;33;45991;-82
2021/10/13 01:11:08;;;;;;;;;;;10.50;92.60;;;;;;4346154;33;43714;-81
2021/10/13 01:13:54;;;;;;;;;;;10.50;92.60;;;;;;4332555;33;43499;-81
2021/10/13 01:16:43;;;;;;;;;;;10.50;92.60;;;;;;4332101;33;43833;-80
2021/10/13 01:19:42;;;;;;;;;;;10.50;92.60;;;;;;4332727;33;45072;-81
2021/10/13 01:22:28;;;;;;;;;;;10.50;92.60;;;;;;4330373;33;46030;-81
2021/10/13 01:25:14;;;;;;;;;;;10.40;92.60;;;;;;4345475;33;42526;-81
2021/10/13 01:28:00;;;;;;;;;;;10.40;92.60;;;;;;4345065;33;45010;-81
2021/10/13 01:30:42;;;;;;;;;;;10.40;92.60;;;;;;4332454;33;44008;-81
2021/10/13 01:33:22;;;;;;;;;;;10.40;92.50;;;;;;4331877;33;45345;-82
2021/10/13 01:35:52;;;;;;;;;;;10.40;92.60;;;;;;4345939;33;46008;-82
2021/10/13 01:38:23;;;;;;;;;;;10.40;92.60;;;;;;4332237;33;45942;-81
2021/10/13 01:41:02;;;;;;;;;;;10.30;92.60;;;;;;4332297;33;45290;-82
2021/10/13 01:43:35;;;;;;;;;;;10.30;92.60;;;;;;4332216;33;46174;-81
2021/10/13 01:46:06;;;;;;;;;;;10.30;92.60;;;;;;4331765;33;45650;-81
2021/10/13 01:48:43;;;;;;;;;;;10.30;92.60;;;;;;4345567;33;43857;-81
2021/10/13 01:51:17;;;;;;;;;;;10.20;92.50;;;;;;4332161;33;43769;-81
2021/10/13 01:53:55;;;;;;;;;;;10.30;92.60;;;;;;4332620;33;45701;-81
2021/10/13 01:56:30;;;;;;;;;;;10.20;92.50;;;;;;4332057;33;44952;-81
2021/10/13 01:59:04;;;;;;;;;;;10.20;92.50;;;;;;4332244;33;43713;-82
2021/10/13 02:01:36;;;;;;;;;;;10.20;92.50;;;;;;4332085;33;43988;-81
2021/10/13 02:04:11;;;;;;;;;;;10.20;92.50;;;;;;4332052;33;44241;-81
2021/10/13 02:06:47;;;;;;;;;;;10.20;92.50;;;;;;4345409;33;43694;-81
2021/10/13 02:09:24;;;;;;;;;;;10.20;92.60;;;;;;4332370;33;44650;-81
2021/10/13 02:12:00;;;;;;;;;;;10.20;92.50;;;;;;4331849;33;43059;-80
2021/10/13 02:14:41;;;;;;;;;;;10.10;92.50;;;;;;4331905;33;46126;-81
2021/10/13 02:17:15;;;;;;;;;;;10.20;92.50;;;;;;4345238;33;43930;-80
2021/10/13 02:19:51;;;;;;;;;;;10.10;92.50;;;;;;4331893;33;44583;-81
2021/10/13 02:22:27;;;;;;;;;;;10.10;92.50;;;;;;4331874;33;43348;-82
2021/10/13 02:24:54;;;;;;;;;;;10.10;92.50;;;;;;4345131;33;44510;-81
2021/10/13 02:27:30;;;;;;;;;;;10.10;92.50;;;;;;4333676;33;45318;-81
2021/10/13 02:30:03;;;;;;;;;;;10.10;92.50;;;;;;4348314;33;44149;-81
2021/10/13 02:32:35;;;;;;;;;;;10.10;92.50;;;;;;4349035;33;20012;-81
2021/10/13 02:35:14;;;;;;;;;;;10.10;92.50;;;;;;4335231;33;44333;-81
2021/10/13 02:37:53;;;;;;;;;;;10.10;92.50;;;;;;4334986;33;44022;-81
2021/10/13 02:40:28;;;;;;;;;;;10.00;92.50;;;;;;4348208;33;45734;-81
2021/10/13 02:42:56;;;;;;;;;;;10.00;92.60;;;;;;4348045;33;43776;-81
2021/10/13 02:45:28;;;;;;;;;;;10.00;92.60;;;;;;4335188;33;43257;-81
2021/10/13 02:48:03;;;;;;;;;;;10.00;92.60;;;;;;4348022;33;43206;-81
2021/10/13 02:50:39;;;;;;;;;;;10.00;92.70;;;;;;4334759;33;43307;-81
2021/10/13 02:53:21;;;;;;;;;;;10.00;92.70;;;;;;4347945;33;43433;-81
2021/10/13 02:55:54;;;;;;;;;;;10.00;92.70;;;;;;4347499;33;43318;-81
2021/10/13 02:58:52;;;;;;;;;;;10.00;92.70;;;;;;4334853;33;45028;-82
2021/10/13 03:01:27;;;;;;;;;;;10.00;92.70;;;;;;4334309;33;43942;-81
2021/10/13 03:04:02;;;;;;;;;;;10.00;92.70;;;;;;4335221;33;20097;-81
2021/10/13 03:06:39;;;;;;;;;;;10.00;92.70;;;;;;4347811;33;43477;-82
2021/10/13 03:09:23;;;;;;;;;;;10.00;92.70;;;;;;4334840;33;45378;-81
2021/10/13 03:11:53;;;;;;;;;;;10.00;92.70;;;;;;4334619;33;44216;-82
2021/10/13 03:14:24;;;;;;;;;;;10.00;92.80;;;;;;4334530;33;45099;-81
2021/10/13 03:16:59;;;;;;;;;;;10.00;92.80;;;;;;4333895;33;43463;-81
2021/10/13 03:19:39;;;;;;;;;;;10.00;92.80;;;;;;4333994;33;44338;-81
2021/10/13 03:22:16;;;;;;;;;;;10.00;92.80;;;;;;4347586;33;44220;-81
2021/10/13 03:24:52;;;;;;;;;;;10.00;92.80;;;;;;4333996;33;43051;-81
2021/10/13 03:27:23;;;;;;;;;;;10.00;92.80;;;;;;4334240;33;44271;-81
2021/10/13 03:29:55;;;;;;;;;;;10.00;92.80;;;;;;4347356;33;43250;-80
2021/10/13 03:32:27;;;;;;;;;;;10.00;92.90;;;;;;4333679;33;43488;-81
2021/10/13 03:35:03;;;;;;;;;;;10.00;92.90;;;;;;4348240;33;20079;-82
2021/10/13 03:37:35;;;;;;;;;;;10.00;92.90;;;;;;4333943;33;43478;-82
2021/10/13 03:40:08;;;;;;;;;;;10.00;92.90;;;;;;4347165;33;45676;-82
2021/10/13 03:42:38;;;;;;;;;;;10.00;92.90;;;;;;4333430;33;45531;-81
2021/10/13 03:45:10;;;;;;;;;;;9.90;92.90;;;;;;4333461;33;44476;-81
2021/10/13 03:47:44;;;;;;;;;;;9.90;92.90;;;;;;4333976;33;44221;-81
2021/10/13 03:50:20;;;;;;;;;;;9.90;92.90;;;;;;4334105;33;43010;-81
2021/10/13 03:52:49;;;;;;;;;;;10.00;93.00;;;;;;4333682;33;44763;-81
2021/10/13 03:55:28;;;;;;;;;;;10.00;93.00;;;;;;4333831;33;42665;-81
2021/10/13 03:57:58;;;;;;;;;;;10.00;93.00;;;;;;4333735;33;44667;-81
2021/10/13 04:00:34;;;;;;;;;;;10.00;93.00;;;;;;4333857;33;42657;-81
2021/10/13 04:03:05;;;;;;;;;;;10.00;93.00;;;;;;4330406;33;44157;-81
2021/10/13 04:05:32;;;;;;;;;;;10.00;93.00;;;;;;4331747;33;20002;-82
2021/10/13 04:08:05;;;;;;;;;;;10.00;93.00;;;;;;4332253;33;44274;-81
2021/10/13 04:10:36;;;;;;;;;;;10.00;93.00;;;;;;4330952;33;44394;-81
2021/10/13 04:13:12;;;;;;;;;;;10.00;93.00;;;;;;4330951;33;43061;-81
2021/10/13 04:15:41;;;;;;;;;;;10.00;93.00;;;;;;4331019;33;43312;-81
2021/10/13 04:18:12;;;;;;;;;;;10.00;93.00;;;;;;4331555;33;43767;-81
2021/10/13 04:20:50;;;;;;;;;;;10.00;93.00;;;;;;4331995;33;44049;-81
2021/10/13 04:23:18;;;;;;;;;;;10.00;93.00;;;;;;4331866;33;43813;-81
2021/10/13 04:25:48;;;;;;;;;;;10.00;93.00;;;;;;4330207;33;44192;-81
2021/10/13 04:28:21;;;;;;;;;;;10.00;93.00;;;;;;4330777;33;43921;-81
2021/10/13 04:30:48;;;;;;;;;;;10.00;93.10;;;;;;4331485;33;43517;-82
2021/10/13 04:33:18;;;;;;;;;;;10.00;93.10;;;;;;4331537;33;43474;-81
2021/10/13 04:35:49;;;;;;;;;;;10.00;93.10;;;;;;4331565;33;20036;-81
2021/10/13 04:38:22;;;;;;;;;;;10.00;93.10;;;;;;4331726;33;43176;-81
2021/10/13 04:40:52;;;;;;;;;;;9.90;93.00;;;;;;4331184;33;44207;-81
2021/10/13 04:43:22;;;;;;;;;;;9.90;93.10;;;;;;4331214;33;43121;-81
2021/10/13 04:45:57;;;;;;;;;;;9.90;93.10;;;;;;4331083;33;45449;-81
2021/10/13 04:48:32;;;;;;;;;;;9.90;93.00;;;;;;4330484;33;43995;-81
2021/10/13 04:51:02;;;;;;;;;;;9.90;93.00;;;;;;4330167;33;45703;-81
2021/10/13 04:53:29;;;;;;;;;;;9.90;93.00;;;;;;4330356;33;45798;-81
2021/10/13 04:55:56;;;;;;;;;;;9.90;93.00;;;;;;4330609;33;45919;-82
2021/10/13 04:58:28;;;;;;;;;;;9.90;93.00;;;;;;4330043;33;43084;-81
2021/10/13 05:01:03;;;;;;;;;;;9.90;93.00;;;;;;4331423;33;45600;-81
2021/10/13 05:03:34;;;;;;;;;;;9.90;93.00;;;;;;4329729;33;44167;-81
2021/10/13 05:06:06;;;;;;;;;;;9.90;93.00;;;;;;4330880;33;19994;-81
2021/10/13 05:08:39;;;;;;;;;;;9.90;93.00;;;;;;4329883;33;43263;-81
2021/10/13 05:11:06;;;;;;;;;;;9.90;93.00;;;;;;4330436;33;43486;-81
2021/10/13 05:13:39;;;;;;;;;;;9.90;93.00;;;;;;4331081;33;44164;-81
2021/10/13 05:16:06;;;;;;;;;;;9.90;93.00;;;;;;4331196;33;44430;-81
2021/10/13 05:18:34;;;;;;;;;;;9.90;93.00;;;;;;4329493;33;45517;-81
2021/10/13 05:21:04;;;;;;;;;;;9.90;93.00;;;;;;4329729;33;43665;-81
2021/10/13 05:23:31;;;;;;;;;;;9.80;93.00;;;;;;4330759;33;42877;-81
2021/10/13 05:26:07;;;;;;;;;;;9.80;93.00;;;;;;4331038;33;45450;-81
2021/10/13 05:28:34;;;;;;;;;;;9.80;93.10;;;;;;4330068;33;44344;-82
2021/10/13 05:31:08;;;;;;;;;;;9.80;93.10;;;;;;4329960;33;43449;-81
2021/10/13 05:33:36;;;;;;;;;;;9.80;93.10;;;;;;4329792;33;46064;-81
2021/10/13 05:36:06;;;;;;;;;;;9.80;93.10;;;;;;4330885;33;20006;-82
2021/10/13 05:38:56;;;;;;;;;;;9.80;93.10;;;;;;4329953;33;43710;-81
2021/10/13 05:41:23;;;;;;;;;;;9.80;93.20;;;;;;4329258;33;42540;-82
2021/10/13 05:43:53;;;;;;;;;;;9.80;93.20;;;;;;4329712;33;43031;-81
2021/10/13 05:46:23;;;;;;;;;;;9.70;93.10;;;;;;4330387;33;45069;-82
2021/10/13 05:48:53;;;;;;;;;;;9.80;93.20;;;;;;4329696;33;43888;-81
2021/10/13 05:51:20;;;;;;;;;;;9.80;93.20;;;;;;4330653;33;43462;-81
2021/10/13 05:53:50;;;;;;;;;;;9.70;93.30;;;;;;4330260;33;43862;-81
2021/10/13 05:56:17;;;;;;;;;;;9.70;93.30;;;;;;4329237;33;43478;-81
2021/10/13 05:58:51;;;;;;;;;;;9.70;93.30;;;;;;4330770;33;42326;-81
2021/10/13 06:01:20;;;;;;;;;;;9.80;93.30;;;;;;4329854;33;43230;-81
2021/10/13 06:03:48;;;;;;;;;;;9.70;93.30;;;;;;4345480;33;43976;-81
2021/10/13 06:06:17;;;;;;;;;;;9.80;93.30;;;;;;4333092;33;20083;-81
2021/10/13 06:08:45;;;;;;;;;;;9.70;93.30;;;;;;4331608;33;43882;-82
2021/10/13 06:11:21;;;;;;;;;;;9.80;93.30;;;;;;4331667;33;43482;-81
2021/10/13 06:13:52;;;;;;;;;;;9.80;93.30;;;;;;4331883;33;44265;-81
2021/10/13 06:16:23;;;;;;;;;;;9.80;93.30;;;;;;4331993;33;45824;-81
2021/10/13 06:18:53;;;;;;;;;;;9.70;93.30;;;;;;4332040;33;42747;-81
2021/10/13 06:21:23;;;;;;;;;;;9.80;93.40;;;;;;4344717;33;43973;-81
2021/10/13 06:23:56;;;;;;;;;;;9.70;93.40;;;;;;4331545;33;44621;-81
2021/10/13 06:26:26;;;;;;;;;;;9.70;93.40;;;;;;4331615;33;45275;-81
2021/10/13 06:28:59;;;;;;;;;;;9.70;93.40;;;;;;4345080;33;44295;-81
2021/10/13 06:31:29;;;;;;;;;;;9.80;93.50;;;;;;4331995;33;43844;-83
2021/10/13 06:33:57;;;;;;;;;;;9.80;93.50;;;;;;4332316;33;44720;-82
2021/10/13 06:36:27;;;;;;;;;;;9.70;93.50;;;;;;4333169;33;20005;-81
2021/10/13 06:38:57;;;;;;;;;;;9.70;93.50;;;;;;4331360;33;42878;-81
2021/10/13 06:41:28;;;;;;;;;;;9.80;93.60;;;;;;4331801;33;45698;-82
2021/10/13 06:43:58;;;;;;;;;;;9.80;93.60;;;;;;4344992;33;44908;-81
2021/10/13 06:46:31;;;;;;;;;;;9.80;93.60;;;;;;4344999;33;43246;-81
2021/10/13 06:49:06;;;;;;;;;;;9.80;93.60;;;;;;4345152;33;44935;-81
2021/10/13 06:51:36;;;;;;;;;;;9.80;93.60;;;;;;4345265;33;43906;-81
2021/10/13 06:54:03;;;;;;;;;;;9.80;93.60;;;;;;4344530;33;43898;-81
2021/10/13 06:56:31;;;;;;;;;;;9.80;93.70;;;;;;4345078;33;43488;-83
2021/10/13 06:58:58;;;;;;;;;;;9.80;93.70;;;;;;4344892;33;45056;-82
2021/10/13 07:01:25;;;;;;;;;;;9.80;93.70;;;;;;4331136;33;44015;-81
2021/10/13 07:03:52;;;;;;;;;;;9.80;93.70;;;;;;4345029;33;44223;-81
2021/10/13 07:06:22;;;;;;;;;;;9.80;93.70;;;;;;4331700;33;43314;-81
2021/10/13 07:08:52;;;;;;;;;;;9.80;93.80;;;;;;4331632;33;42541;-81
2021/10/13 07:11:27;;;;;;;;;;;9.80;93.80;;;;;;4330946;33;44626;-81
2021/10/13 07:13:54;;;;;;;;;;;9.80;93.90;;;;;;4347183;33;44256;-81
2021/10/13 07:16:24;;;;;;;;;;;9.80;93.90;;;;;;4334006;33;43506;-81
2021/10/13 07:18:54;;;;;;;;;;;9.80;93.90;;;;;;4347361;33;43239;-81
2021/10/13 07:21:24;;;;;;;;;;;9.80;93.90;;;;;;4334243;33;45390;-83
2021/10/13 07:23:51;;;;;;;;;;;9.80;93.90;;;;;;4333839;33;43386;-81
2021/10/13 07:26:24;;;;;;;;;;;9.80;94.00;;;;;;4333787;33;43975;-81
2021/10/13 07:28:55;;;;;;;;;;;9.80;94.00;;;;;;4334149;33;44306;-81
2021/10/13 07:31:22;;;;;;;;;;;9.80;94.00;;;;;;4334013;33;42917;-81
2021/10/13 07:33:53;;;;;;;;;;;9.80;94.00;;;;;;4347366;33;42744;-81
2021/10/13 07:36:20;;;;;;;;;;;9.80;94.00;;;;;;4333935;33;43167;-81
2021/10/13 07:38:50;;;;;;;;;;;9.80;94.10;;;;;;4347069;33;43425;-81
2021/10/13 07:41:20;;;;;;;;;;;9.90;94.10;;;;;;4334315;33;45323;-81
2021/10/13 07:43:48;;;;;;;;;;;9.80;94.10;;;;;;4333908;33;43277;-82
2021/10/13 07:46:15;;;;;;;;;;;9.90;94.20;;;;;;4333447;33;43474;-81
2021/10/13 07:48:46;;;;;;;;;;;9.80;94.20;;;;;;4333527;33;44200;-81
2021/10/13 07:51:16;;;;;;;;;;;9.90;94.20;;;;;;4333837;33;43583;-81
2021/10/13 07:53:46;;;;;;;;;;;9.90;94.20;;;;;;4346622;33;43062;-81
2021/10/13 07:56:13;;;;;;;;;;;9.90;94.20;;;;;;4333528;33;43044;-81
2021/10/13 07:58:40;;;;;;;;;;;9.90;94.30;;;;;;4333648;33;44237;-81
2021/10/13 08:01:16;;;;;;;;;;;9.90;94.30;;;;;;4333282;33;43462;-81
2021/10/13 08:03:43;;;;;;;;;;;9.90;94.30;;;;;;4346472;33;43467;-81
2021/10/13 08:06:10;;;;;;;;;;;9.90;94.30;;;;;;4333718;33;44801;-81
2021/10/13 08:08:40;;;;;;;;;;;9.90;94.30;;;;;;4333484;33;42730;-82
2021/10/13 08:11:07;;;;;;;;;;;10.00;94.40;;;;;;4346718;33;43216;-81
2021/10/13 08:13:37;;;;;;;;;;;9.90;94.40;;;;;;4346811;33;44385;-80
2021/10/13 08:16:04;;;;;;;;;;;10.00;94.50;;;;;;4333450;33;42543;-81
2021/10/13 08:18:32;;;;;;;;;;;9.90;94.50;;;;;;4333277;33;43853;-81
2021/10/13 08:21:05;;;;;;;;;;;9.90;94.50;;;;;;4333041;33;43282;-81
2021/10/13 08:23:37;;;;;;;;;;;10.00;94.50;;;;;;4333118;33;45083;-81
2021/10/13 08:26:07;;;;;;;;;;;9.90;94.50;;;;;;4333030;33;44243;-81
2021/10/13 08:28:35;;;;;;;;;;;10.00;94.50;;;;;;4346643;33;44556;-81
2021/10/13 08:31:05;;;;;;;;;;;10.00;94.50;;;;;;4332436;33;42901;-81
2021/10/13 08:33:32;;;;;;;;;;;10.00;94.50;;;;;;4345995;33;44177;-81
2021/10/13 08:36:00;;;;;;;;;;;10.00;94.50;;;;;;4333020;33;44860;-79
2021/10/13 08:38:29;;;;;;;;;;;10.00;94.50;;;;;;4346061;33;42988;-80
2021/10/13 08:40:56;;;;;;;;;;;10.00;94.60;;;;;;4345811;33;46256;-80
2021/10/13 08:43:24;;;;;;;;;;;10.00;94.60;;;;;;4345865;33;44227;-81
2021/10/13 08:45:56;;;;;;;;;;;10.00;94.60;;;;;;4333276;33;45732;-80
2021/10/13 08:48:26;;;;;;;;;;;10.10;94.70;;;;;;4332825;33;43019;-81
2021/10/13 08:50:54;;;;;;;;;;;10.00;94.70;;;;;;4346080;33;42654;-80
2021/10/13 08:53:24;;;;;;;;;;;10.10;94.70;;;;;;4345767;33;42858;-81
2021/10/13 08:55:51;;;;;;;;;;;10.10;94.70;;;;;;4332741;33;44813;-81
2021/10/13 08:58:20;;;;;;;;;;;10.10;94.70;;;;;;4346365;33;46024;-80
2021/10/13 09:00:53;;;;;;;;;;;10.10;94.70;;;;;;4345762;33;43027;-80
2021/10/13 09:03:26;;;;;;;;;;;10.10;95.10;;;;;;4332239;33;42862;-81
2021/10/13 09:05:57;;;;;;;;;;;10.10;94.70;;;;;;4345978;33;45176;-81
2021/10/13 09:08:30;;;;;;;;;;;10.20;94.70;;;;;;4346510;33;20040;-81
2021/10/13 09:10:57;;;;;;;;;;;10.20;94.70;;;;;;4332839;33;43892;-81
2021/10/13 09:13:38;;;;;;;;;;;10.20;94.70;;;;;;4332227;33;46192;-81
2021/10/13 09:16:05;;;;;;;;;;;10.20;94.70;;;;;;4332201;33;44347;-80
2021/10/13 09:18:35;;;;;;;;;;;10.20;94.70;;;;;;4332112;33;43832;-80
2021/10/13 09:21:04;;;;;;;;;;;10.20;94.70;;;;;;4345805;33;42310;-82
2021/10/13 09:23:31;;;;;;;;;;;10.20;94.70;;;;;;4332862;33;44255;-82
2021/10/13 09:26:02;;;;;;;;;;;10.20;94.70;;;;;;4345418;33;43074;-81
2021/10/13 09:28:34;;;;;;;;;;;10.30;94.80;;;;;;4331925;33;42882;-80
2021/10/13 09:31:12;;;;;;;;;;;10.20;94.70;;;;;;4345989;33;43481;-80
2021/10/13 09:33:51;;;;;;;;;;;10.30;94.80;;;;;;4332076;33;43283;-81
2021/10/13 09:36:18;;;;;;;;;;;10.30;94.70;;;;;;4345443;33;45956;-80
2021/10/13 09:38:48;;;;;;;;;;;10.30;94.70;;;;;;4345975;33;20106;-80
2021/10/13 09:41:16;;;;;;;;;;;10.30;94.80;;;;;;4345450;33;43590;-81
2021/10/13 09:43:45;;;;;;;;;;;10.30;94.80;;;;;;4345501;33;45347;-81
2021/10/13 09:46:14;;;;;;;;;;;10.30;94.80;;;;;;4331858;33;43939;-81
2021/10/13 09:48:43;;;;;;;;;;;10.40;94.80;;;;;;4331787;33;42612;-81
2021/10/13 09:51:14;;;;;;;;;;;10.40;94.80;;;;;;4332095;33;43952;-81
2021/10/13 09:53:44;;;;;;;;;;;10.40;94.80;;;;;;4345075;33;43023;-81
2021/10/13 09:56:30;;;;;;;;;;;10.40;94.80;;;;;;4344997;33;44049;-81
2021/10/13 09:59:06;;;;;;;;;;;10.40;94.80;;;;;;4345510;33;43480;-81
2021/10/13 10:01:34;;;;;;;;;;;10.40;94.80;;;;;;4344873;33;42904;-82
2021/10/13 10:04:01;;;;;;;;;;;10.40;94.90;;;;;;4344877;33;43509;-81
2021/10/13 10:06:29;;;;;;;;;;;10.50;94.90;;;;;;4331605;33;42307;-81
2021/10/13 10:09:01;;;;;;;;;;;10.50;94.90;;;;;;4346594;33;20005;-82
2021/10/13 10:11:28;;;;;;;;;;;10.50;94.90;;;;;;4332063;33;43662;-81
2021/10/13 10:13:59;;;;;;;;;;;10.50;94.90;;;;;;4345360;33;44046;-81
2021/10/13 10:16:49;;;;;;;;;;;10.50;94.90;;;;;;4344968;33;43549;-81
2021/10/13 10:19:20;;;;;;;;;;;10.60;94.90;;;;;;4332032;33;42242;-81
2021/10/13 10:21:56;;;;;;;;;;;10.60;94.90;;;;;;4345268;33;43858;-81
2021/10/13 10:24:31;;;;;;;;;;;10.60;94.90;;;;;;4345423;33;43251;-81
2021/10/13 10:27:17;;;;;;;;;;;10.60;94.90;;;;;;4344666;33;44575;-82
2021/10/13 10:29:49;;;;;;;;;;;10.60;95.00;;;;;;4331794;33;41927;-81
2021/10/13 10:32:18;;;;;;;;;;;10.60;94.90;;;;;;4344739;33;43485;-82
2021/10/13 10:35:06;;;;;;;;;;;10.60;95.00;;;;;;4345400;33;43967;-81
2021/10/13 10:37:49;;;;;;;;;;;10.70;95.00;;;;;;4331827;33;43910;-81
2021/10/13 10:40:30;;;;;;;;;;;10.70;95.00;;;;;;4332080;33;20020;-82
2021/10/13 10:43:00;;;;;;;;;;;10.70;95.00;;;;;;4344812;33;42619;-81
2021/10/13 10:45:29;;;;;;;;;;;10.70;95.00;;;;;;4344479;33;43413;-81
2021/10/13 10:48:06;;;;;;;;;;;10.80;95.00;;;;;;4346105;33;43284;-81
2021/10/13 10:50:57;;;;;;;;;;;10.70;95.00;;;;;;4334653;33;43875;-82
2021/10/13 10:53:32;;;;;;;;;;;10.80;95.00;;;;;;4347954;33;44054;-81
2021/10/13 10:55:59;;;;;;;;;;;10.80;95.00;;;;;;4334445;33;42631;-81
2021/10/13 10:58:31;;;;;;;;;;;10.80;95.00;;;;;;4347474;33;44490;-81
2021/10/13 11:01:18;;;;;;;;;;;10.80;95.00;;;;;;4335978;33;43006;-82
2021/10/13 11:03:45;;;;;;;;;;;10.80;95.00;;;;;;4347448;33;44227;-82
2021/10/13 11:06:18;;;;;;;;;;;10.80;95.00;;;;;;4334521;33;44006;-81
2021/10/13 11:08:53;;;;;;;;;;;10.80;95.00;;;;;;4347746;33;43351;-81
2021/10/13 11:11:26;;;;;;;;;;;10.80;95.00;;;;;;4348213;33;20039;-81
2021/10/13 11:14:21;;;;;;;;;;;10.80;95.00;;;;;;4333868;33;42600;-81
2021/10/13 11:16:58;;;;;;;;;;;10.80;95.10;;;;;;4329876;33;44280;-81
2021/10/13 11:19:33;;;;;;;;;;;10.80;95.10;;;;;;4334094;33;43098;-81
2021/10/13 11:22:11;;;;;;;;;;;10.90;95.10;;;;;;4347075;33;42519;-82
2021/10/13 11:24:39;;;;;;;;;;;10.90;95.10;;;;;;4334198;33;43992;-80
2021/10/13 11:27:07;;;;;;;;;;;10.80;95.10;;;;;;4346903;33;43039;-82
2021/10/13 11:29:35;;;;;;;;;;;10.90;95.10;;;;;;4347062;33;44182;-81
2021/10/13 11:32:02;;;;;;;;;;;10.90;95.20;;;;;;4347202;33;43304;-82
2021/10/13 11:34:29;;;;;;;;;;;10.90;95.20;;;;;;4334186;33;43254;-82
2021/10/13 11:36:59;;;;;;;;;;;10.90;95.20;;;;;;4347307;33;44723;-82
2021/10/13 11:39:30;;;;;;;;;;;10.90;95.20;;;;;;4346752;33;46042;-81
2021/10/13 11:42:01;;;;;;;;;;;10.90;95.20;;;;;;4334330;33;20005;-81
2021/10/13 11:44:32;;;;;;;;;;;10.90;95.20;;;;;;4334092;33;43184;-81
2021/10/13 11:47:04;;;;;;;;;;;10.90;95.20;;;;;;4333985;33;43197;-81
2021/10/13 11:49:32;;;;;;;;;;;10.90;95.20;;;;;;4346758;33;44184;-82
2021/10/13 11:52:06;;;;;;;;;;;11.00;95.30;;;;;;4333407;33;43289;-81
2021/10/13 11:54:33;;;;;;;;;;;11.00;95.30;;;;;;4333422;33;42735;-81
2021/10/13 11:57:01;;;;;;;;;;;11.00;95.40;;;;;;4347000;33;43940;-81
2021/10/13 11:59:28;;;;;;;;;;;11.00;95.70;;;;;;4333940;33;43282;-81
2021/10/13 12:01:58;;;;;;;;;;;11.10;95.40;;;;;;4346287;33;44806;-81
2021/10/13 12:04:25;;;;;;;;;;;11.10;95.40;;;;;;4346878;33;44274;-80
2021/10/13 12:06:52;;;;;;;;;;;11.10;95.40;;;;;;4346365;33;44242;-80
2021/10/13 12:09:24;;;;;;;;;;;11.20;95.50;;;;;;4347001;33;43885;-81
2021/10/13 12:11:51;;;;;;;;;;;11.30;95.50;;;;;;4346988;33;42857;-81
2021/10/13 12:14:18;;;;;;;;;;;11.30;95.50;;;;;;4346797;33;43478;-81
2021/10/13 12:17:20;;;;;;;;;;;11.30;95.50;;;;;;4346316;33;42694;-81
2021/10/13 12:19:53;;;;;;;;;;;11.40;95.50;;;;;;4333668;33;42502;-81
2021/10/13 12:22:20;;;;;;;;;;;11.40;95.50;;;;;;4333596;33;44234;-81
2021/10/13 12:24:50;;;;;;;;;;;11.40;95.40;;;;;;4333295;33;43329;-81
2021/10/13 12:27:29;;;;;;;;;;;11.50;95.40;;;;;;4332978;33;42974;-81
2021/10/13 12:29:57;;;;;;;;;;;11.50;95.40;;;;;;4333407;33;44226;-81
2021/10/13 12:32:27;;;;;;;;;;;11.50;95.50;;;;;;4346314;33;42480;-81
2021/10/13 12:35:11;;;;;;;;;;;11.60;95.50;;;;;;4332824;33;43974;-81
2021/10/13 12:37:48;;;;;;;;;;;11.70;95.40;;;;;;4346008;33;42209;-81
2021/10/13 12:40:16;;;;;;;;;;;11.70;95.50;;;;;;4332897;33;43129;-81
2021/10/13 12:42:43;;;;;;;;;;;11.70;95.40;;;;;;4345882;33;43765;-82
2021/10/13 12:45:13;;;;;;;;;;;11.80;95.40;;;;;;4345977;33;43173;-82
2021/10/13 12:47:40;;;;;;;;;;;11.80;95.40;;;;;;4345835;33;43864;-82
2021/10/13 12:50:16;;;;;;;;;;;11.80;95.40;;;;;;4345923;33;43228;-81
2021/10/13 12:52:43;;;;;;;;;;;11.90;95.40;;;;;;4333113;33;43209;-82
2021/10/13 12:55:10;;;;;;;;;;;11.90;95.40;;;;;;4345763;33;42966;-82
2021/10/13 12:57:38;;;;;;;;;;;11.90;95.40;;;;;;4346142;33;44005;-81
2021/10/13 13:00:05;;;;;;;;;;;11.90;95.30;;;;;;4332478;33;44313;-82
2021/10/13 13:02:54;;;;;;;;;;;12.00;95.40;;;;;;4334651;33;43363;-81
2021/10/13 13:05:23;;;;;;;;;;;12.00;95.40;;;;;;4345545;33;43478;-81
2021/10/13 13:07:51;;;;;;;;;;;12.00;95.40;;;;;;4345527;33;42747;-81
2021/10/13 13:10:18;;;;;;;;;;;12.10;95.40;;;;;;4345070;33;44677;-81
2021/10/13 13:12:50;;;;;;;;;;;12.10;95.40;;;;;;4332890;33;44188;-81
2021/10/13 13:15:17;;;;;;;;;;;12.10;95.30;;;;;;4346020;33;44008;-82
2021/10/13 13:17:45;;;;;;;;;;;12.20;95.30;;;;;;4332244;33;43886;-81
2021/10/13 13:20:12;;;;;;;;;;;12.20;95.30;;;;;;4332181;33;44251;-81
2021/10/13 13:22:45;;;;;;;;;;;12.20;95.30;;;;;;4345585;33;42692;-80
2021/10/13 13:25:12;;;;;;;;;;;12.20;95.30;;;;;;4332341;33;42081;-81
2021/10/13 13:27:42;;;;;;;;;;;12.20;95.30;;;;;;4345704;33;43715;-81
2021/10/13 13:30:09;;;;;;;;;;;12.20;95.30;;;;;;4345397;33;43813;-81
2021/10/13 13:32:39;;;;;;;;;;;12.20;95.30;;;;;;4345203;33;43103;-81
2021/10/13 13:35:09;;;;;;;;;;;12.20;95.30;;;;;;4331945;33;44016;-81
2021/10/13 13:37:37;;;;;;;;;;;12.20;95.30;;;;;;4345592;33;44775;-81
2021/10/13 13:40:06;;;;;;;;;;;12.20;95.20;;;;;;4332323;33;45783;-82
2021/10/13 13:42:33;;;;;;;;;;;12.20;95.20;;;;;;4345106;33;42842;-81
2021/10/13 13:45:03;;;;;;;;;;;12.20;95.20;;;;;;4332735;33;20001;-81
2021/10/13 13:47:30;;;;;;;;;;;12.30;95.30;;;;;;4332011;33;43483;-81
2021/10/13 13:50:06;;;;;;;;;;;12.30;95.30;;;;;;4345052;33;43076;-81
2021/10/13 13:52:42;;;;;;;;;;;12.30;95.30;;;;;;4345643;33;43215;-82
2021/10/13 13:55:20;;;;;;;;;;;12.30;95.30;;;;;;4345466;33;43744;-81
2021/10/13 13:57:53;;;;;;;;;;;12.30;95.20;;;;;;4332222;33;43196;-81
2021/10/13 14:00:20;;;;;;;;;;;12.30;95.20;;;;;;4332443;33;44184;-81
2021/10/13 14:02:56;;;;;;;;;;;12.30;95.20;;;;;;4344944;33;44231;-81
2021/10/13 14:05:34;;;;;;;;;;;12.30;95.20;;;;;;4331998;33;43322;-81
2021/10/13 14:08:11;;;;;;;;;;;12.30;95.20;;;;;;4345275;33;46054;-81
2021/10/13 14:10:52;;;;;;;;;;;12.40;95.20;;;;;;4332922;33;43770;-81
2021/10/13 14:13:33;;;;;;;;;;;12.40;95.20;;;;;;4332337;33;44596;-81
2021/10/13 14:16:08;;;;;;;;;;;12.40;95.20;;;;;;4332939;33;20040;-81
2021/10/13 14:18:46;;;;;;;;;;;12.40;95.20;;;;;;4332175;33;44168;-81
2021/10/13 14:21:17;;;;;;;;;;;12.40;95.20;;;;;;4332343;33;44231;-81
2021/10/13 14:23:49;;;;;;;;;;;12.40;95.20;;;;;;4334275;33;45240;-81
2021/10/13 14:26:25;;;;;;;;;;;12.40;95.20;;;;;;4334654;33;42951;-82
2021/10/13 14:28:53;;;;;;;;;;;12.50;95.30;;;;;;4335049;33;45480;-81
2021/10/13 14:31:27;;;;;;;;;;;12.50;95.30;;;;;;4334619;33;43137;-81
2021/10/13 14:33:56;;;;;;;;;;;12.50;95.20;;;;;;4334837;33;42759;-81
2021/10/13 14:36:32;;;;;;;;;;;12.50;95.20;;;;;;4348237;33;43332;-81
2021/10/13 14:39:07;;;;;;;;;;;12.60;95.20;;;;;;4334848;33;45660;-81
2021/10/13 14:41:49;;;;;;;;;;;12.50;95.20;;;;;;4335193;33;44512;-81
2021/10/13 14:44:24;;;;;;;;;;;12.60;95.20;;;;;;4347719;33;43068;-81
2021/10/13 14:47:00;;;;;;;;;;;12.60;95.20;;;;;;4335448;33;20036;-81
2021/10/13 14:49:35;;;;;;;;;;;12.60;95.20;;;;;;4334468;33;44271;-81
2021/10/13 14:52:08;;;;;;;;;;;12.60;95.10;;;;;;4334717;33;44757;-82